Terminal Aerodrome Forecast
Issued by NWS Topeka, KS

Home | Current Version | Previous Version | Text Only | Print | Product List | Glossary On
Versions: 1 2 3 4 5 6 7 8 9 10 11 12 13 14 15 16 17
000
FTUS43 KTOP 240700 AAA
TAFTOP
TAF AMD
KTOP 240758Z 2408/2506 16015KT P6SM BKN150
     FM240830 29012KT P6SM SCT020 OVC100
     FM240900 33012KT P6SM -SHRA VCTS SCT015 OVC035CB
      TEMPO 2410/2413 4SM -TSRA OVC025CB
     FM241700 33012G20KT P6SM VCSH SCT025 BKN035
     FM242000 34014G23KT P6SM FEW040 BKN100
     FM250100 28005KT P6SM SKC=

USA.gov is the U.S. government's official web portal to all federal, state and local government web resources and services.